createdAt,value
2023-03-26T00:00:54.892Z,7.58
2023-03-26T00:01:54.968Z,7.69
2023-03-26T00:02:54.888Z,7.58
2023-03-26T00:03:54.887Z,7.71
2023-03-26T00:04:54.856Z,7.73
2023-03-26T00:05:55.042Z,7.69
2023-03-26T00:06:54.853Z,7.67
2023-03-26T00:07:54.863Z,7.73
2023-03-26T00:08:54.827Z,7.69
2023-03-26T00:09:54.822Z,7.70
2023-03-26T00:10:54.812Z,7.71
2023-03-26T00:11:54.810Z,7.73
2023-03-26T00:12:54.791Z,7.71
2023-03-26T00:13:54.810Z,7.73
2023-03-26T00:14:54.784Z,7.76
2023-03-26T00:15:54.869Z,7.67
2023-03-26T00:16:54.785Z,7.74
2023-03-26T00:17:54.763Z,7.66
2023-03-26T00:18:54.738Z,7.69
2023-03-26T00:19:54.807Z,7.70
2023-03-26T00:20:54.726Z,7.66
2023-03-26T00:21:54.714Z,7.71
2023-03-26T00:22:54.716Z,7.67
2023-03-26T00:23:54.690Z,7.71
2023-03-26T00:24:54.693Z,7.70
2023-03-26T00:25:54.984Z,7.67
2023-03-26T00:26:54.679Z,7.71
2023-03-26T00:27:54.679Z,7.67
2023-03-26T00:28:54.840Z,7.71
2023-03-26T00:29:54.665Z,7.69
2023-03-26T00:30:54.680Z,7.70
2023-03-26T00:31:54.737Z,7.62
2023-03-26T00:32:54.661Z,7.66
2023-03-26T00:33:54.649Z,7.62
2023-03-26T00:34:54.639Z,7.57
2023-03-26T00:35:54.812Z,7.58
2023-03-26T00:36:54.621Z,7.63
2023-03-26T00:37:54.711Z,7.69
2023-03-26T00:38:54.619Z,7.58
2023-03-26T00:39:54.597Z,7.62
2023-03-26T00:40:55.614Z,7.63
2023-03-26T00:41:54.938Z,7.69
2023-03-26T00:42:54.578Z,7.63
2023-03-26T00:43:54.648Z,7.70
2023-03-26T00:44:54.557Z,7.70
2023-03-26T00:45:54.889Z,7.71
2023-03-26T00:46:54.548Z,7.69
2023-03-26T00:47:54.620Z,7.73
2023-03-26T00:48:54.544Z,7.66
2023-03-26T00:49:54.599Z,7.73
2023-03-26T00:50:54.539Z,7.70
2023-03-26T00:51:54.522Z,7.71
2023-03-26T00:52:54.488Z,7.77
2023-03-26T00:53:54.497Z,7.69
2023-03-26T00:54:54.519Z,7.74
2023-03-26T00:55:55.084Z,7.73
2023-03-26T00:56:54.533Z,7.73
2023-03-26T00:57:54.463Z,7.67
2023-03-26T00:58:54.459Z,7.66
2023-03-26T00:59:54.451Z,7.76
2023-03-26T01:00:54.447Z,7.67
2023-03-26T01:01:54.529Z,7.66
2023-03-26T01:02:54.504Z,7.62
2023-03-26T01:04:06.852Z,7.73
2023-03-26T01:04:55.582Z,7.62
2023-03-26T01:05:54.655Z,7.71
2023-03-26T01:06:54.388Z,7.58
2023-03-26T01:07:54.442Z,7.66
2023-03-26T01:08:54.418Z,7.69
2023-03-26T01:09:54.396Z,7.62
2023-03-26T01:10:54.375Z,7.70
2023-03-26T01:11:54.387Z,7.63
2023-03-26T01:12:54.347Z,7.70
2023-03-26T01:13:54.417Z,7.74
2023-03-26T01:14:54.335Z,7.66
2023-03-26T01:15:54.517Z,7.74
2023-03-26T01:16:54.340Z,7.69
2023-03-26T01:17:54.363Z,7.66
2023-03-26T01:18:54.336Z,7.79
2023-03-26T01:19:54.340Z,7.74
2023-03-26T01:20:54.295Z,7.70
2023-03-26T01:21:54.291Z,7.82
2023-03-26T01:22:54.314Z,7.70
2023-03-26T01:23:54.306Z,7.73
2023-03-26T01:24:54.334Z,7.79
2023-03-26T01:25:54.471Z,7.77
2023-03-26T01:26:54.290Z,7.82
2023-03-26T01:27:54.231Z,7.74
2023-03-26T01:28:54.255Z,7.84
2023-03-26T01:29:54.282Z,7.77
2023-03-26T01:30:54.215Z,7.76
2023-03-26T01:31:54.286Z,7.79
2023-03-26T01:32:54.264Z,7.76
2023-03-26T01:33:54.214Z,7.84
2023-03-26T01:34:54.187Z,7.86
2023-03-26T01:35:54.430Z,7.89
2023-03-26T01:36:54.183Z,7.89
2023-03-26T01:37:54.227Z,7.79
2023-03-26T01:38:54.183Z,7.84
2023-03-26T01:39:54.179Z,7.86
2023-03-26T01:40:54.147Z,7.84
2023-03-26T01:41:54.158Z,7.85
2023-03-26T01:42:54.139Z,7.89
2023-03-26T01:43:54.193Z,7.91
2023-03-26T01:44:54.118Z,7.88
2023-03-26T01:45:54.215Z,7.85
2023-03-26T01:46:54.127Z,7.81
2023-03-26T01:47:54.130Z,7.79
2023-03-26T01:48:54.096Z,7.82
2023-03-26T01:49:54.183Z,7.85
2023-03-26T01:50:54.105Z,7.74
2023-03-26T01:51:54.099Z,7.88
2023-03-26T01:52:54.089Z,7.86
2023-03-26T01:53:54.107Z,7.77
2023-03-26T01:54:54.042Z,7.89
2023-03-26T01:55:54.203Z,7.91
2023-03-26T01:56:54.080Z,7.85
2023-03-26T01:57:54.017Z,7.79
2023-03-26T01:58:54.018Z,7.79
2023-03-26T01:59:54.044Z,7.88
2023-03-26T02:00:54.008Z,7.81
2023-03-26T02:01:54.311Z,7.88
2023-03-26T02:02:54.085Z,7.79
2023-03-26T02:03:53.959Z,7.77
2023-03-26T02:04:53.970Z,7.81
2023-03-26T02:05:54.130Z,7.84
2023-03-26T02:06:53.969Z,7.84
2023-03-26T02:07:53.976Z,7.85
2023-03-26T02:08:53.938Z,7.85
2023-03-26T02:09:53.940Z,7.79
2023-03-26T02:10:53.942Z,7.81
2023-03-26T02:11:53.913Z,7.91
2023-03-26T02:12:53.938Z,7.88
2023-03-26T02:13:53.956Z,8.07
2023-03-26T02:14:53.888Z,7.85
2023-03-26T02:15:54.071Z,7.92
2023-03-26T02:16:53.885Z,7.94
2023-03-26T02:17:53.928Z,7.89
2023-03-26T02:18:53.856Z,7.94
2023-03-26T02:19:53.885Z,7.82
2023-03-26T02:20:53.869Z,7.85
2023-03-26T02:21:53.836Z,7.88
2023-03-26T02:22:53.876Z,7.86
2023-03-26T02:23:53.838Z,7.82
2023-03-26T02:24:53.808Z,7.89
2023-03-26T02:25:54.036Z,7.70
2023-03-26T02:26:53.826Z,7.79
2023-03-26T02:27:53.821Z,7.84
2023-03-26T02:28:53.802Z,7.76
2023-03-26T02:29:53.773Z,7.77
2023-03-26T02:30:53.790Z,7.77
2023-03-26T02:31:53.835Z,7.73
2023-03-26T02:32:53.812Z,7.74
2023-03-26T02:33:53.767Z,7.70
2023-03-26T02:34:53.764Z,7.77
2023-03-26T02:36:36.907Z,7.74
2023-03-26T02:36:53.750Z,7.74
2023-03-26T02:37:53.797Z,7.77
2023-03-26T02:38:53.738Z,7.74
2023-03-26T02:39:53.700Z,7.70
2023-03-26T02:40:53.710Z,7.76
2023-03-26T02:41:53.732Z,7.73
2023-03-26T02:42:53.708Z,7.74
2023-03-26T02:43:53.749Z,7.69
2023-03-26T02:44:53.699Z,7.60
2023-03-26T02:45:53.982Z,7.71
2023-03-26T02:46:53.690Z,7.73
2023-03-26T02:47:53.674Z,7.74
2023-03-26T02:48:53.647Z,7.66
2023-03-26T02:49:53.710Z,7.82
2023-03-26T02:50:53.678Z,7.74
2023-03-26T02:51:53.668Z,7.76
2023-03-26T02:52:53.632Z,7.67
2023-03-26T02:53:53.672Z,7.71
2023-03-26T02:54:53.637Z,7.70
2023-03-26T02:55:53.959Z,7.73
2023-03-26T02:56:53.643Z,7.63
2023-03-26T02:57:53.595Z,7.70
2023-03-26T02:58:53.611Z,7.62
2023-03-26T02:59:53.567Z,7.63
2023-03-26T03:00:53.607Z,7.66
2023-03-26T03:01:53.708Z,7.55
2023-03-26T03:02:53.659Z,7.55
2023-03-26T03:03:53.557Z,7.44
2023-03-26T03:04:53.567Z,7.41
2023-03-26T03:05:53.714Z,7.50
2023-03-26T03:06:53.535Z,7.36
2023-03-26T03:07:54.030Z,7.41
2023-03-26T03:08:53.551Z,7.41
2023-03-26T03:09:53.506Z,7.44
2023-03-26T03:10:53.511Z,7.33
2023-03-26T03:11:53.509Z,7.26
2023-03-26T03:12:53.508Z,7.23
2023-03-26T03:13:53.532Z,7.14
2023-03-26T03:14:53.489Z,7.29
2023-03-26T03:15:53.722Z,7.14
2023-03-26T03:16:53.495Z,7.18
2023-03-26T03:17:53.505Z,7.12
2023-03-26T03:18:53.448Z,7.15
2023-03-26T03:19:53.510Z,7.08
2023-03-26T03:20:53.458Z,7.12
2023-03-26T03:21:53.430Z,7.18
2023-03-26T03:22:53.421Z,7.14
2023-03-26T03:23:53.410Z,7.14
2023-03-26T03:24:53.412Z,7.11
2023-03-26T03:25:53.782Z,7.14
2023-03-26T03:26:53.370Z,7.23
2023-03-26T03:27:53.373Z,7.11
2023-03-26T03:28:53.398Z,7.11
2023-03-26T03:29:53.394Z,7.12
2023-03-26T03:30:53.453Z,7.11
2023-03-26T03:31:53.456Z,7.04
2023-03-26T03:32:53.401Z,7.05
2023-03-26T03:33:53.320Z,7.04
2023-03-26T03:34:53.340Z,7.00
2023-03-26T03:35:53.605Z,6.94
2023-03-26T03:36:53.332Z,6.94
2023-03-26T03:37:53.354Z,6.93
2023-03-26T03:38:53.325Z,6.99
2023-03-26T03:39:53.270Z,6.94
2023-03-26T03:40:53.289Z,6.87
2023-03-26T03:41:53.315Z,6.86
2023-03-26T03:42:53.275Z,6.91
2023-03-26T03:43:53.320Z,6.82
2023-03-26T03:44:53.270Z,6.81
2023-03-26T03:45:53.561Z,6.79
2023-03-26T03:46:53.253Z,6.72
2023-03-26T03:47:53.257Z,6.78
2023-03-26T03:48:53.253Z,6.71
2023-03-26T03:49:53.281Z,6.65
2023-03-26T03:50:53.194Z,6.71
2023-03-26T03:51:53.213Z,6.58
2023-03-26T03:52:53.219Z,6.63
2023-03-26T03:53:53.189Z,6.51
2023-03-26T03:54:53.152Z,6.58
2023-03-26T03:55:53.706Z,6.50
2023-03-26T03:56:53.271Z,6.55
2023-03-26T03:57:53.180Z,6.50
2023-03-26T03:58:53.164Z,6.50
2023-03-26T03:59:53.135Z,6.50
2023-03-26T04:00:53.148Z,6.33
2023-03-26T04:01:53.156Z,6.36
2023-03-26T04:02:53.144Z,6.35
2023-03-26T04:03:53.187Z,6.32
2023-03-26T04:04:53.123Z,6.27
2023-03-26T04:05:53.250Z,6.25
2023-03-26T04:06:53.082Z,6.28
2023-03-26T04:07:53.125Z,6.25
2023-03-26T04:08:53.074Z,6.14
2023-03-26T04:09:53.073Z,6.16
2023-03-26T04:10:53.042Z,6.10
2023-03-26T04:11:53.079Z,6.10
2023-03-26T04:12:53.033Z,6.01
2023-03-26T04:13:53.094Z,6.05
2023-03-26T04:14:53.039Z,6.06
2023-03-26T04:15:53.260Z,6.01
2023-03-26T04:16:53.023Z,6.08
2023-03-26T04:17:53.067Z,6.06
2023-03-26T04:18:53.019Z,6.03
2023-03-26T04:19:53.074Z,6.08
2023-03-26T04:20:52.984Z,6.08
2023-03-26T04:21:52.994Z,6.10
2023-03-26T04:22:53.000Z,6.08
2023-03-26T04:23:52.964Z,6.17
2023-03-26T04:24:52.949Z,6.13
2023-03-26T04:25:53.148Z,6.16
2023-03-26T04:26:52.939Z,6.17
2023-03-26T04:27:52.938Z,6.16
2023-03-26T04:28:52.926Z,6.21
2023-03-26T04:29:52.934Z,6.25
2023-03-26T04:30:52.926Z,6.13
2023-03-26T04:31:52.988Z,6.16
2023-03-26T04:32:52.965Z,6.17
2023-03-26T04:33:52.912Z,6.02
2023-03-26T04:34:52.899Z,6.21
2023-03-26T04:35:53.087Z,6.19
2023-03-26T04:36:53.013Z,6.03
2023-03-26T04:37:52.907Z,6.03
2023-03-26T04:38:52.863Z,6.05
2023-03-26T04:39:52.858Z,6.10
2023-03-26T04:40:52.853Z,6.06
2023-03-26T04:41:52.836Z,6.11
2023-03-26T04:42:52.855Z,6.05
2023-03-26T04:43:52.834Z,6.05
2023-03-26T04:44:52.847Z,6.01
2023-03-26T04:45:53.060Z,6.02
2023-03-26T04:46:52.824Z,6.08
2023-03-26T04:47:53.042Z,6.08
2023-03-26T04:48:52.793Z,6.02
2023-03-26T04:49:52.822Z,6.08
2023-03-26T04:50:52.779Z,6.14
2023-03-26T04:51:52.781Z,6.10
2023-03-26T04:52:52.756Z,6.13
2023-03-26T04:53:52.770Z,6.19
2023-03-26T04:54:52.749Z,6.11
2023-03-26T04:55:53.012Z,6.11
2023-03-26T04:56:52.780Z,6.14
2023-03-26T04:57:52.717Z,6.19
2023-03-26T04:58:52.717Z,6.11
2023-03-26T04:59:52.706Z,6.16
2023-03-26T05:00:52.757Z,6.13
2023-03-26T05:01:52.726Z,6.05
2023-03-26T05:02:52.731Z,6.14
2023-03-26T05:03:52.724Z,6.14
2023-03-26T05:04:52.686Z,6.13
2023-03-26T05:05:52.899Z,6.03
2023-03-26T05:06:52.680Z,6.11
2023-03-26T05:07:52.701Z,6.14
2023-03-26T05:08:52.635Z,6.11
2023-03-26T05:09:52.630Z,6.10
2023-03-26T05:10:52.828Z,6.17
2023-03-26T05:11:52.597Z,6.19
2023-03-26T05:13:13.880Z,6.17
2023-03-26T05:13:52.623Z,6.16
2023-03-26T05:14:52.624Z,6.17
2023-03-26T05:15:52.610Z,6.21
2023-03-26T05:16:52.732Z,6.28
2023-03-26T05:17:52.632Z,6.19
2023-03-26T05:18:52.627Z,6.13
2023-03-26T05:19:52.574Z,6.25
2023-03-26T05:20:52.810Z,6.21
2023-03-26T05:21:52.529Z,6.25
2023-03-26T05:22:52.571Z,6.33
2023-03-26T05:23:52.599Z,6.28
2023-03-26T05:24:52.552Z,6.35
2023-03-26T05:25:52.502Z,6.35
2023-03-26T05:26:52.503Z,6.46
2023-03-26T05:27:52.489Z,6.43
2023-03-26T05:28:52.816Z,6.46
2023-03-26T05:29:52.498Z,6.48
2023-03-26T05:30:52.735Z,6.45
2023-03-26T05:31:52.471Z,6.36
2023-03-26T05:32:52.524Z,6.46
2023-03-26T05:33:52.526Z,6.39
2023-03-26T05:34:52.448Z,6.45
2023-03-26T05:35:52.509Z,6.42
2023-03-26T05:36:52.538Z,6.46
2023-03-26T05:37:52.428Z,6.53
2023-03-26T05:38:52.496Z,6.63
2023-03-26T05:39:52.426Z,6.69
2023-03-26T05:40:52.566Z,6.65
2023-03-26T05:41:52.422Z,6.73
2023-03-26T05:42:52.433Z,6.71
2023-03-26T05:43:52.388Z,6.78
2023-03-26T05:45:12.061Z,6.75
2023-03-26T05:45:52.430Z,6.82
2023-03-26T05:46:52.388Z,6.81
2023-03-26T05:47:52.432Z,6.83
2023-03-26T05:48:52.429Z,6.79
2023-03-26T05:49:52.352Z,6.90
2023-03-26T05:50:52.508Z,6.82
2023-03-26T05:51:54.987Z,6.94
2023-03-26T05:52:52.346Z,6.91
2023-03-26T05:53:52.330Z,6.86
2023-03-26T05:54:52.351Z,6.93
2023-03-26T05:55:52.331Z,6.91
2023-03-26T05:57:02.345Z,6.94
2023-03-26T05:57:53.303Z,6.97
2023-03-26T05:58:52.297Z,6.93
2023-03-26T05:59:52.258Z,7.05
2023-03-26T06:00:52.477Z,7.04
2023-03-26T06:01:52.235Z,7.16
2023-03-26T06:02:52.297Z,7.15
2023-03-26T06:03:52.316Z,7.24
2023-03-26T06:04:52.319Z,7.30
2023-03-26T06:05:52.254Z,7.24
2023-03-26T06:06:52.259Z,7.33
2023-03-26T06:07:52.252Z,7.44
2023-03-26T06:09:01.350Z,7.47
2023-03-26T06:09:53.207Z,7.44
2023-03-26T06:10:52.270Z,7.45
2023-03-26T06:11:52.206Z,7.48
2023-03-26T06:12:52.446Z,7.48
2023-03-26T06:13:52.196Z,7.41
2023-03-26T06:14:52.187Z,7.51
2023-03-26T06:15:52.193Z,7.52
2023-03-26T06:16:52.182Z,7.52
2023-03-26T06:17:52.197Z,7.51
2023-03-26T06:18:52.370Z,7.52
2023-03-26T06:19:52.138Z,7.55
2023-03-26T06:20:52.190Z,7.66
2023-03-26T06:21:52.146Z,7.62
2023-03-26T06:22:52.133Z,7.55
2023-03-26T06:23:52.112Z,7.60
2023-03-26T06:24:52.140Z,7.55
2023-03-26T06:25:52.093Z,7.51
2023-03-26T06:26:52.088Z,7.57
2023-03-26T06:27:52.092Z,7.62
2023-03-26T06:28:52.090Z,7.62
2023-03-26T06:29:52.064Z,7.63
2023-03-26T06:30:52.269Z,7.60
2023-03-26T06:31:52.066Z,7.62
2023-03-26T06:32:52.096Z,7.67
2023-03-26T06:33:52.012Z,7.62
2023-03-26T06:34:52.008Z,7.63
2023-03-26T06:35:52.067Z,7.73
2023-03-26T06:36:52.066Z,7.71
2023-03-26T06:37:51.993Z,7.71
2023-03-26T06:38:52.007Z,7.63
2023-03-26T06:39:51.996Z,7.62
2023-03-26T06:40:52.051Z,7.67
2023-03-26T06:41:52.001Z,7.73
2023-03-26T06:43:07.734Z,7.70
2023-03-26T06:43:52.974Z,7.74
2023-03-26T06:44:51.947Z,7.69
2023-03-26T06:45:52.015Z,7.73
2023-03-26T06:46:51.954Z,7.79
2023-03-26T06:47:52.031Z,7.79
2023-03-26T06:48:51.961Z,7.91
2023-03-26T06:49:51.920Z,7.86
2023-03-26T06:50:52.078Z,7.81
2023-03-26T06:51:51.930Z,7.81
2023-03-26T06:52:51.897Z,7.85
2023-03-26T06:53:51.881Z,7.86
2023-03-26T06:54:51.910Z,7.79
2023-03-26T06:55:51.869Z,7.88
2023-03-26T06:56:51.899Z,7.96
2023-03-26T06:57:51.860Z,7.88
2023-03-26T06:58:51.832Z,7.84
2023-03-26T06:59:51.823Z,7.99
2023-03-26T07:00:51.866Z,7.91
2023-03-26T07:01:51.835Z,7.99
2023-03-26T07:02:51.920Z,8.06
2023-03-26T07:03:51.899Z,8.04
2023-03-26T07:04:51.830Z,7.96
2023-03-26T07:05:51.797Z,8.00
2023-03-26T07:06:51.818Z,8.04
2023-03-26T07:07:51.810Z,8.02
2023-03-26T07:08:51.765Z,8.00
2023-03-26T07:09:51.808Z,7.91
2023-03-26T07:10:51.844Z,8.07
2023-03-26T07:11:51.754Z,8.18
2023-03-26T07:12:51.775Z,8.29
2023-03-26T07:13:51.756Z,8.34
2023-03-26T07:14:51.769Z,8.34
2023-03-26T07:15:51.717Z,8.42
2023-03-26T07:16:51.768Z,8.54
2023-03-26T07:17:51.793Z,8.57
2023-03-26T07:18:51.723Z,8.60
2023-03-26T07:19:51.703Z,8.57
2023-03-26T07:20:51.811Z,8.57
2023-03-26T07:21:51.682Z,8.43
2023-03-26T07:22:51.667Z,8.55
2023-03-26T07:23:51.651Z,8.58
2023-03-26T07:24:52.081Z,8.68
2023-03-26T07:25:51.692Z,8.61
2023-03-26T07:26:51.697Z,8.70
2023-03-26T07:27:51.673Z,8.79
2023-03-26T07:29:05.181Z,8.64
2023-03-26T07:29:52.668Z,8.68
2023-03-26T07:30:51.603Z,8.75
2023-03-26T07:31:51.619Z,8.73
2023-03-26T07:32:51.612Z,8.86
2023-03-26T07:33:51.602Z,8.83
2023-03-26T07:34:51.571Z,8.75
2023-03-26T07:35:51.654Z,8.83
2023-03-26T07:36:51.551Z,8.88
2023-03-26T07:37:51.552Z,8.94
2023-03-26T07:38:51.545Z,8.94
2023-03-26T07:39:51.571Z,9.03
2023-03-26T07:40:51.575Z,9.03
2023-03-26T07:41:51.583Z,8.82
2023-03-26T07:42:51.531Z,8.83
2023-03-26T07:43:51.511Z,8.96
2023-03-26T07:44:51.499Z,8.94
2023-03-26T07:45:51.506Z,8.52
2023-03-26T07:46:51.508Z,8.61
2023-03-26T07:47:51.590Z,8.55
2023-03-26T07:48:51.500Z,8.79
2023-03-26T07:49:51.478Z,8.85
2023-03-26T07:50:51.489Z,8.76
2023-03-26T07:51:51.455Z,8.55
2023-03-26T07:52:51.472Z,8.39
2023-03-26T07:53:51.514Z,8.52
2023-03-26T07:54:51.461Z,8.55
2023-03-26T07:55:51.439Z,8.57
2023-03-26T07:56:52.652Z,8.54
2023-03-26T07:57:51.397Z,8.78
2023-03-26T07:58:51.419Z,8.86
2023-03-26T07:59:51.431Z,9.03
2023-03-26T08:00:51.369Z,8.80
2023-03-26T08:01:51.382Z,8.91
2023-03-26T08:02:51.425Z,9.00
2023-03-26T08:03:51.417Z,9.10
2023-03-26T08:04:51.645Z,9.04
2023-03-26T08:05:51.384Z,9.17
2023-03-26T08:06:51.335Z,8.98
2023-03-26T08:07:51.362Z,8.96
2023-03-26T08:08:51.393Z,8.96
2023-03-26T08:09:51.350Z,9.06
2023-03-26T08:10:51.337Z,8.85
2023-03-26T08:11:51.371Z,8.88
2023-03-26T08:12:51.328Z,9.12
2023-03-26T08:13:51.327Z,9.20
2023-03-26T08:14:51.322Z,9.24
2023-03-26T08:15:51.331Z,9.16
2023-03-26T08:16:51.265Z,9.19
2023-03-26T08:17:51.313Z,9.03
2023-03-26T08:18:51.298Z,9.10
2023-03-26T08:19:51.277Z,9.10
2023-03-26T08:20:51.269Z,9.22
2023-03-26T08:21:51.251Z,9.22
2023-03-26T08:22:51.249Z,9.23
2023-03-26T08:23:51.371Z,9.19
2023-03-26T08:24:51.229Z,9.12
2023-03-26T08:25:51.224Z,8.88
2023-03-26T08:26:51.215Z,8.96
2023-03-26T08:27:51.196Z,8.98
2023-03-26T08:28:51.201Z,9.01
2023-03-26T08:29:51.243Z,9.01
2023-03-26T08:30:51.248Z,9.10
2023-03-26T08:31:51.162Z,9.31
2023-03-26T08:32:51.193Z,9.30
2023-03-26T08:33:51.156Z,9.30
2023-03-26T08:34:51.172Z,9.16
2023-03-26T08:35:51.222Z,9.06
2023-03-26T08:36:51.141Z,8.94
2023-03-26T08:37:51.130Z,8.89
2023-03-26T08:38:51.106Z,9.06
2023-03-26T08:39:51.112Z,9.15
2023-03-26T08:40:51.105Z,9.26
2023-03-26T08:41:51.183Z,9.37
2023-03-26T08:42:51.100Z,9.32
2023-03-26T08:43:51.094Z,9.17
2023-03-26T08:44:51.076Z,9.12
2023-03-26T08:45:51.066Z,9.06
2023-03-26T08:46:51.142Z,8.97
2023-03-26T08:47:51.111Z,8.86
2023-03-26T08:48:51.041Z,8.88
2023-03-26T08:49:51.026Z,8.91
2023-03-26T08:50:51.011Z,8.89
2023-03-26T08:51:51.042Z,8.85
2023-03-26T08:52:51.003Z,8.85
2023-03-26T08:53:51.044Z,8.78
2023-03-26T08:54:50.987Z,8.70
2023-03-26T08:55:50.977Z,8.40
2023-03-26T08:56:51.053Z,8.24
2023-03-26T08:57:50.986Z,8.20
2023-03-26T08:58:50.988Z,8.10
2023-03-26T08:59:50.997Z,8.07
2023-03-26T09:00:50.958Z,8.02
2023-03-26T09:01:51.008Z,8.04
2023-03-26T09:02:51.002Z,8.21
2023-03-26T09:03:50.945Z,8.18
2023-03-26T09:04:50.957Z,8.24
2023-03-26T09:05:50.930Z,8.17
2023-03-26T09:06:50.906Z,8.20
2023-03-26T09:07:54.013Z,8.12
2023-03-26T09:08:53.956Z,8.18
2023-03-26T09:09:50.879Z,8.29
2023-03-26T09:10:50.879Z,8.20
2023-03-26T09:11:50.937Z,8.27
2023-03-26T09:12:50.888Z,8.21
2023-03-26T09:13:50.864Z,8.09
2023-03-26T09:14:50.876Z,8.06
2023-03-26T09:15:50.893Z,8.04
2023-03-26T09:16:50.849Z,8.09
2023-03-26T09:17:50.911Z,8.13
2023-03-26T09:18:50.845Z,8.17
2023-03-26T09:19:50.826Z,8.17
2023-03-26T09:20:50.816Z,8.17
2023-03-26T09:21:50.809Z,8.22
2023-03-26T09:22:50.780Z,8.34
2023-03-26T09:23:50.825Z,8.32
2023-03-26T09:24:50.794Z,8.29
2023-03-26T09:25:50.769Z,8.20
2023-03-26T09:26:50.781Z,8.07
2023-03-26T09:27:50.771Z,8.20
2023-03-26T09:28:50.744Z,8.29
2023-03-26T09:29:50.813Z,8.22
2023-03-26T09:30:50.747Z,8.25
2023-03-26T09:31:50.795Z,8.29
2023-03-26T09:32:50.754Z,8.28
2023-03-26T09:33:50.727Z,8.32
2023-03-26T09:34:50.729Z,8.28
2023-03-26T09:35:50.816Z,8.31
2023-03-26T09:36:50.699Z,8.29
2023-03-26T09:37:57.039Z,8.12
2023-03-26T09:38:51.683Z,8.10
2023-03-26T09:39:50.664Z,8.12
2023-03-26T09:40:52.360Z,8.09
2023-03-26T09:41:50.703Z,8.04
2023-03-26T09:42:50.628Z,8.04
2023-03-26T09:43:50.621Z,8.10
2023-03-26T09:44:50.629Z,8.13
2023-03-26T09:45:50.705Z,8.12
2023-03-26T09:46:50.613Z,7.94
2023-03-26T09:47:50.707Z,7.86
2023-03-26T09:48:50.604Z,7.99
2023-03-26T09:49:50.612Z,8.10
2023-03-26T09:50:50.577Z,8.12
2023-03-26T09:51:50.572Z,8.14
2023-03-26T09:52:50.565Z,8.09
2023-03-26T09:53:50.618Z,7.86
2023-03-26T09:54:50.575Z,7.76
2023-03-26T09:55:50.530Z,7.77
2023-03-26T09:56:50.582Z,7.71
2023-03-26T09:57:50.557Z,7.69
2023-03-26T09:58:50.511Z,7.69
2023-03-26T09:59:50.558Z,7.66
2023-03-26T10:00:50.525Z,7.50
2023-03-26T10:01:50.513Z,7.57
2023-03-26T10:02:52.319Z,7.57
2023-03-26T10:03:50.484Z,7.71
2023-03-26T10:04:50.498Z,7.67
2023-03-26T10:05:50.509Z,7.70
2023-03-26T10:06:50.471Z,7.67
2023-03-26T10:07:50.469Z,7.71
2023-03-26T10:08:50.455Z,7.51
2023-03-26T10:09:50.478Z,7.67
2023-03-26T10:10:50.434Z,7.67
2023-03-26T10:11:50.471Z,7.55
2023-03-26T10:12:50.445Z,7.51
2023-03-26T10:13:50.398Z,7.52
2023-03-26T10:14:50.420Z,7.58
2023-03-26T10:15:50.408Z,7.69
2023-03-26T10:16:50.403Z,7.71
2023-03-26T10:17:50.456Z,7.57
2023-03-26T10:18:50.406Z,7.60
2023-03-26T10:19:50.395Z,7.47
2023-03-26T10:20:50.354Z,7.50
2023-03-26T10:21:50.347Z,7.50
2023-03-26T10:22:50.335Z,7.44
2023-03-26T10:23:50.410Z,7.57
2023-03-26T10:24:50.374Z,7.54
2023-03-26T10:25:50.320Z,7.57
2023-03-26T10:27:09.284Z,7.44
2023-03-26T10:27:51.336Z,7.48
2023-03-26T10:28:50.298Z,7.39
2023-03-26T10:29:50.749Z,7.45
2023-03-26T10:30:50.337Z,7.48
2023-03-26T10:31:50.288Z,7.50
2023-03-26T10:32:50.307Z,7.39
2023-03-26T10:33:50.303Z,7.48
2023-03-26T10:34:50.271Z,7.42
2023-03-26T10:35:50.332Z,7.37
2023-03-26T10:36:50.228Z,7.27
2023-03-26T10:37:50.234Z,7.09
2023-03-26T10:38:50.235Z,7.14
2023-03-26T10:39:50.234Z,7.08
2023-03-26T10:40:50.216Z,7.00
2023-03-26T10:41:50.250Z,7.12
2023-03-26T10:42:50.220Z,7.18
2023-03-26T10:44:01.301Z,7.12
2023-03-26T10:44:51.170Z,7.07
2023-03-26T10:45:50.233Z,7.09
2023-03-26T10:46:50.273Z,7.11
2023-03-26T10:47:50.372Z,7.01
2023-03-26T10:48:50.158Z,7.07
2023-03-26T10:49:50.173Z,7.14
2023-03-26T10:50:50.122Z,7.15
2023-03-26T10:51:50.145Z,7.19
2023-03-26T10:52:50.162Z,7.26
2023-03-26T10:53:50.142Z,7.45
2023-03-26T10:54:50.118Z,7.45
2023-03-26T10:55:50.099Z,7.58
2023-03-26T10:56:50.107Z,7.63
2023-03-26T10:57:50.096Z,7.60
2023-03-26T10:58:50.546Z,7.76
2023-03-26T10:59:50.119Z,7.86
2023-03-26T11:00:50.124Z,7.96
2023-03-26T11:01:50.070Z,8.04
2023-03-26T11:02:50.074Z,8.07
2023-03-26T11:03:50.068Z,8.10
2023-03-26T11:04:50.018Z,8.14
2023-03-26T11:05:50.136Z,8.13
2023-03-26T11:06:50.038Z,8.10
2023-03-26T11:07:50.022Z,8.09
2023-03-26T11:08:50.002Z,7.95
2023-03-26T11:09:49.983Z,7.85
2023-03-26T11:10:49.994Z,7.79
2023-03-26T11:11:50.052Z,7.86
2023-03-26T11:12:49.994Z,8.03
2023-03-26T11:13:49.982Z,7.95
2023-03-26T11:14:49.972Z,7.91
2023-03-26T11:15:49.998Z,8.18
2023-03-26T11:16:49.950Z,8.47
2023-03-26T11:17:50.035Z,8.49
2023-03-26T11:18:49.948Z,8.24
2023-03-26T11:19:51.921Z,8.22
2023-03-26T11:20:49.908Z,8.31
2023-03-26T11:21:49.984Z,8.28
2023-03-26T11:22:49.894Z,8.42
2023-03-26T11:23:49.936Z,8.55
2023-03-26T11:24:50.914Z,8.63
2023-03-26T11:25:49.925Z,8.70
2023-03-26T11:26:49.874Z,8.73
2023-03-26T11:27:49.884Z,8.55
2023-03-26T11:29:03.903Z,8.46
2023-03-26T11:29:51.088Z,8.22
2023-03-26T11:30:49.882Z,8.34
2023-03-26T11:31:49.844Z,8.42
2023-03-26T11:32:49.869Z,8.37
2023-03-26T11:33:49.832Z,8.37
2023-03-26T11:34:49.850Z,8.47
2023-03-26T11:35:49.919Z,8.68
2023-03-26T11:36:49.827Z,8.65
2023-03-26T11:37:49.787Z,8.76
2023-03-26T11:38:49.802Z,8.78
2023-03-26T11:39:49.821Z,8.65
2023-03-26T11:40:49.786Z,8.47
2023-03-26T11:41:49.813Z,8.45
2023-03-26T11:42:49.778Z,8.58
2023-03-26T11:43:49.804Z,8.57
2023-03-26T11:44:49.758Z,8.50
2023-03-26T11:45:49.753Z,8.29
2023-03-26T11:46:49.798Z,8.29
2023-03-26T11:47:49.898Z,8.43
2023-03-26T11:48:49.747Z,8.58
2023-03-26T11:49:49.686Z,8.71
2023-03-26T11:50:49.692Z,8.78
2023-03-26T11:51:49.727Z,8.96
2023-03-26T11:52:49.711Z,9.06
2023-03-26T11:53:49.751Z,9.04
2023-03-26T11:54:49.719Z,8.96
2023-03-26T11:55:49.690Z,9.16
2023-03-26T11:57:04.863Z,9.15
2023-03-26T11:57:50.654Z,9.15
2023-03-26T11:58:49.644Z,8.85
2023-03-26T11:59:57.314Z,8.91
2023-03-26T12:00:50.637Z,8.88
2023-03-26T12:01:49.702Z,9.01
2023-03-26T12:02:49.665Z,8.85
2023-03-26T12:03:49.584Z,8.76
2023-03-26T12:04:49.642Z,8.68
2023-03-26T12:05:49.674Z,8.64
2023-03-26T12:06:49.604Z,8.68
2023-03-26T12:07:49.598Z,8.80
2023-03-26T12:08:49.588Z,8.79
2023-03-26T12:09:49.583Z,8.67
2023-03-26T12:10:49.563Z,8.75
2023-03-26T12:11:49.567Z,8.61
2023-03-26T12:12:49.539Z,8.54
2023-03-26T12:13:49.545Z,8.36
2023-03-26T12:14:49.522Z,8.42
2023-03-26T12:15:49.505Z,8.40
2023-03-26T12:16:49.580Z,8.25
2023-03-26T12:17:49.607Z,8.12
2023-03-26T12:18:49.509Z,8.20
2023-03-26T12:19:49.492Z,8.06
2023-03-26T12:20:49.501Z,8.10
2023-03-26T12:21:49.510Z,8.13
2023-03-26T12:22:49.564Z,8.28
2023-03-26T12:23:49.467Z,8.34
2023-03-26T12:24:49.442Z,8.46
2023-03-26T12:25:49.428Z,8.45
2023-03-26T12:26:49.475Z,8.65
2023-03-26T12:27:49.423Z,8.70
2023-03-26T12:28:49.440Z,8.57
2023-03-26T12:29:49.474Z,8.60
2023-03-26T12:30:49.508Z,8.50
2023-03-26T12:31:49.538Z,8.40
2023-03-26T12:32:49.471Z,8.45
2023-03-26T12:33:49.373Z,8.50
2023-03-26T12:34:49.362Z,8.64
2023-03-26T12:35:49.822Z,8.57
2023-03-26T12:36:49.470Z,8.75
2023-03-26T12:37:49.424Z,8.67
2023-03-26T12:39:16.419Z,8.68
2023-03-26T12:40:06.852Z,8.50
2023-03-26T12:40:50.540Z,8.52
2023-03-26T12:43:40.602Z,8.34
2023-03-26T12:44:47.106Z,8.55
2023-03-26T12:44:56.290Z,8.57
2023-03-26T12:44:59.299Z,8.71
2023-03-26T12:47:26.481Z,8.73
2023-03-26T12:47:59.880Z,8.83
2023-03-26T12:48:01.203Z,8.91
2023-03-26T12:48:50.464Z,8.82
2023-03-26T12:49:49.366Z,8.79
2023-03-26T12:50:49.256Z,8.65
2023-03-26T12:51:49.342Z,8.64
2023-03-26T12:52:50.421Z,8.64
2023-03-26T12:53:49.261Z,8.71
2023-03-26T12:54:52.292Z,8.78
2023-03-26T12:55:49.301Z,8.65
2023-03-26T12:56:49.226Z,8.82
2023-03-26T12:57:51.469Z,8.73
2023-03-26T12:58:49.266Z,8.79
2023-03-26T12:59:49.216Z,8.76
2023-03-26T13:00:49.248Z,8.80
2023-03-26T13:01:49.414Z,8.82
2023-03-26T13:02:49.268Z,8.93
2023-03-26T13:03:51.171Z,9.04
2023-03-26T13:04:58.633Z,9.24
2023-03-26T13:05:50.206Z,9.12
2023-03-26T13:07:00.598Z,9.23
2023-03-26T13:07:50.197Z,9.44
2023-03-26T13:08:49.170Z,9.42
2023-03-26T13:09:51.048Z,9.22
2023-03-26T13:10:49.127Z,9.15
2023-03-26T13:11:49.138Z,9.27
2023-03-26T13:12:49.121Z,9.08
2023-03-26T13:13:49.093Z,9.17
2023-03-26T13:14:49.092Z,9.37
2023-03-26T13:15:50.705Z,9.48
2023-03-26T13:16:49.165Z,9.55
2023-03-26T13:17:49.095Z,9.77
2023-03-26T13:18:49.065Z,9.68